ADDS METAR Data INFO
IDs: Format: Raw Decoded Include TAF

Data at: 0932 UTC 25 Jun 2018

KFFA 250910Z AUTO 25007G14KT 10SM CLR 24/22 A2995 RMK AO2 T02440222 PWINO
KFFA 250850Z AUTO 26003KT 24/22 A2995 RMK AO2 T02440220 PWINO
KFFA 250830Z AUTO 25005KT 24/22 A2994 RMK AO2 T02420219 PWINO
KFFA 250810Z AUTO 25003KT 24/22 A2994 RMK AO2 T02400220 PWINO
KFFA 250750Z AUTO 24004KT 24/22 A2994 RMK AO2 T02390222 PWINO
KFFA 250730Z AUTO 00000KT 24/22 A2994 RMK AO2 T02390223 PWINO
KFFA 250710Z AUTO 23004KT 10SM CLR 24/22 A2995 RMK AO2 T02390222
KFFA 250650Z AUTO 00000KT 24/22 A2995 RMK AO2 T02370224 PWINO
KFFA 250630Z AUTO 00000KT BKN055 BKN065 OVC120 23/23 A2995 RMK AO2 T02320226 PWINO
KFFA 250610Z AUTO 00000KT BKN050 BKN060 23/23 A2995 RMK AO2 T02300225 PWINO
KFFA 250550Z AUTO 00000KT 23/22 A2995 RMK AO2 T02330223 PWINO
KFFA 250530Z AUTO 00000KT BKN060 BKN075 BKN090 23/22 A2996 RMK AO2 T02330224 PWINO
KFFA 250510Z AUTO 23004KT 23/22 A2995 RMK AO2 T02290222 PWINO
KFFA 250450Z AUTO 00000KT 23/22 A2995 RMK AO2 T02260219 PWINO
KFFA 250430Z AUTO 00000KT 23/22 A2996 RMK AO2 T02260216 PWINO
KFFA 250420Z AUTO 00000KT 23/21 A2996 RMK AO2 T02290213 PWINO
KFFA 250410Z AUTO 00000KT 23/21 A2996 RMK AO2 T02330208 PWINO
KFFA 250350Z AUTO 00000KT SCT034 SCT046 BKN120 23/20 A2995 RMK AO2 T02340201 PWINO
KFFA 250330Z AUTO 32010G15KT 300V010 10SM -RA SCT033 SCT042 BKN120 24/20 A2996 RMK AO2 T02370203
KFFA 250310Z AUTO 32008G19KT 290V360 10SM SCT029 SCT035 BKN060 25/20 A2999 RMK AO2 T02450198
KFFA 250250Z AUTO 30016G30KT 10SM SCT030 SCT035 BKN043 27/22 A3000 RMK AO2 T02730217 PWINO
KFFA 250230Z AUTO 24006KT 10SM CLR 28/23 A2996 RMK AO2 T02750231 PWINO
KFFA 250210Z AUTO 24006KT 10SM CLR 28/23 A2995 RMK AO2 T02750229
KFFA 250150Z AUTO 22008KT 10SM CLR 28/23 A2994 RMK AO2 T02750226
KFFA 250130Z AUTO 22009G14KT 160V250 CLR 28/22 A2992 RMK AO2 T02750221 PWINO
KFFA 250110Z AUTO 21006G14KT CLR 28/22 A2991 RMK AO2 T02760216 PWINO
KFFA 250050Z AUTO 21007G16KT 180V240 10SM CLR 28/21 A2991 RMK AO2 T02820208
KFFA 250030Z AUTO 22007KT CLR 29/20 A2991 RMK AO2 T02870200 PWINO
KFFA 250010Z AUTO 23006G14KT 10SM CLR 29/21 A2989 RMK AO2 T02940213
KFFA 242350Z AUTO 24005KT 10SM CLR 30/24 A2988 RMK AO2 T02990237
KFFA 242330Z AUTO 23004KT 10SM CLR 30/24 A2988 RMK AO2 T03040240
KFFA 242310Z AUTO 22008KT 190V250 10SM SCT060 31/25 A2987 RMK AO2 T03100248
KFFA 242250Z AUTO 22005KT 10SM CLR 32/24 A2988 RMK AO2 T03190236
KFFA 242230Z AUTO 23003KT 10SM CLR 33/21 A2988 RMK AO2 T03270211
KFFA 242210Z AUTO 23007KT 10SM CLR 33/22 A2988 RMK AO2 T03290216
KFFA 242150Z AUTO 23005KT 10SM CLR 33/22 A2987 RMK AO2 T03310215
KFFA 242130Z AUTO 24004KT 10SM CLR 33/21 A2986 RMK AO2 T03300209
KFFA 242110Z AUTO 24008KT 210V270 CLR 33/22 A2987 RMK AO2 T03280217
KFFA 242050Z AUTO 26004KT 10SM CLR 33/22 A2987 RMK AO2 T03260219
KFFA 242030Z AUTO 27005KT 10SM CLR 33/22 A2988 RMK AO2 T03250218
KFFA 242010Z AUTO 26004KT 10SM CLR 32/22 A2987 RMK AO2 T03240219
KFFA 241950Z AUTO 25006KT 10SM CLR 32/22 A2988 RMK AO2 T03200222
KFFA 241930Z AUTO 27006KT CLR 32/23 A2988 RMK AO2 T03190225 PWINO
KFFA 241910Z AUTO 26008KT 10SM CLR 32/23 A2989 RMK AO2 T03190230
KFFA 241850Z AUTO 28003KT 10SM CLR 32/23 A2989 RMK AO2 T03180227
KFFA 241830Z AUTO 27007KT CLR 32/23 A2989 RMK AO2 T03170225 PWINO
KFFA 241810Z AUTO 27007KT 240V300 10SM CLR 32/23 A2989 RMK AO2 T03200225
KFFA 241750Z AUTO 26004KT CLR 32/22 A2989 RMK AO2 T03190221 PWINO
KFFA 241730Z AUTO 26005KT 10SM CLR 32/22 A2989 RMK AO2 T03160215 PWINO
KFFA 241710Z AUTO 26010KT CLR 32/21 A2989 RMK AO2 T03150213 PWINO
KFFA 241650Z AUTO 25008KT 220V280 CLR 32/22 A2990 RMK AO2 T03160219 PWINO
KFFA 241630Z AUTO 25005KT 10SM CLR 31/22 A2990 RMK AO2 T03120223
KFFA 241610Z AUTO 24003KT 10SM CLR 31/23 A2991 RMK AO2 T03080228
KFFA 241550Z AUTO 24006KT 10SM CLR 30/23 A2991 RMK AO2 T03040230
KFFA 241530Z AUTO 26007KT 210V300 CLR 30/23 A2992 RMK AO2 T03010231 PWINO
KFFA 241510Z AUTO 25007KT 10SM CLR 30/23 A2992 RMK AO2 T03020233
KFFA 241450Z AUTO 24005KT CLR 30/23 A2992 RMK AO2 T03020233 PWINO
KFFA 241430Z AUTO 23004KT 10SM CLR 30/23 A2991 RMK AO2 T02990232
KFFA 241410Z AUTO 23006KT CLR 30/23 A2991 RMK AO2 T02960229 PWINO
KFFA 241350Z AUTO 24005KT 10SM CLR 29/23 A2991 RMK AO2 T02920229
KFFA 241330Z AUTO 25003KT 10SM CLR 29/23 A2991 RMK AO2 T02880229
KFFA 241310Z AUTO 24004KT 10SM CLR 29/23 A2991 RMK AO2 T02850230 PWINO
KFFA 241250Z AUTO 23003KT CLR 28/23 A2991 RMK AO2 T02810233 PWINO
KFFA 241230Z AUTO 23005KT CLR 28/24 A2991 RMK AO2 T02750243 PWINO
KFFA 241210Z AUTO 00000KT 27/25 A2991 RMK AO2 T02700247 PWINO
KFFA 241150Z AUTO 24006KT 27/25 A2991 RMK AO2 T02660246 PWINO
KFFA 241130Z AUTO 23003KT 27/25 A2990 RMK AO2 T02650249 PWINO
KFFA 241110Z AUTO 00000KT 26/25 A2989 RMK AO2 T02610249 PWINO
KFFA 241050Z AUTO 00000KT 10SM CLR 26/25 A2989 RMK AO2 T02560250
KFFA 241030Z AUTO 00000KT 25/25 A2989 RMK AO2 T02540250 PWINO
KFFA 241010Z AUTO 00000KT 25/25 A2989 RMK AO2 T02530250 PWINO
KFFA 240950Z AUTO 00000KT 25/25 A2989 RMK AO2 T02530250 PWINO
KFFA 240930Z AUTO 00000KT 25/25 A2988 RMK AO2 T02540250 PWINO
KFFA 240910Z AUTO 00000KT 26/25 A2988 RMK AO2 T02560251 PWINO
KFFA 240850Z AUTO 23004KT 7SM SCT009 26/25 A2988 RMK AO2 T02570252
KFFA 240830Z AUTO 00000KT 7SM SCT007 26/25 A2988 RMK AO2 T02590252
KFFA 240810Z AUTO 00000KT 26/25 A2987 RMK AO2 T02600251 PWINO
KFFA 240750Z AUTO 00000KT 10SM CLR 26/25 A2987 RMK AO2 T02600248
KFFA 240730Z AUTO 00000KT 10SM SCT100 26/25 A2987 RMK AO2 T02600246 PWINO
KFFA 240710Z AUTO 00000KT 26/24 A2987 RMK AO2 T02600244 PWINO
KFFA 240650Z AUTO 00000KT BKN090 26/24 A2987 RMK AO2 T02600243 PWINO
KFFA 240630Z AUTO 22004KT BKN090 26/24 A2987 RMK AO2 T02600240 PWINO
KFFA 240610Z AUTO 24003KT 26/24 A2987 RMK AO2 T02600236 PWINO
KFFA 240550Z AUTO 23005KT CLR 26/23 A2987 RMK AO2 T02580230 PWINO
KFFA 240530Z AUTO 00000KT SCT090 26/22 A2988 RMK AO2 T02550224 PWINO
KFFA 240510Z AUTO 00000KT OVC100 26/22 A2987 RMK AO2 T02550221 PWINO
KFFA 240450Z AUTO 23004KT BKN100 25/23 A2987 RMK AO2 T02530226 PWINO
KFFA 240430Z AUTO 00000KT 25/23 A2988 RMK AO2 T02530232 PWINO
KFFA 240410Z AUTO 00000KT BKN100 OVC110 26/23 A2988 RMK AO2 T02550231 PWINO
KFFA 240350Z AUTO 23004KT BKN100 BKN120 25/23 A2988 RMK AO2 T02540230 PWINO
KFFA 240330Z AUTO 23003KT 10SM SCT100 SCT120 25/23 A2988 RMK AO2 T02460228
KFFA 240310Z AUTO 00000KT 25/23 A2987 RMK AO2 T02450231 PWINO
KFFA 240250Z AUTO 21003KT 25/22 A2986 RMK AO2 T02460224 PWINO
KFFA 240230Z AUTO 24006KT SCT034 SCT075 BKN095 24/21 A2987 RMK AO2 T02420214 PWINO
KFFA 240210Z AUTO 21004KT 24/22 A2986 RMK AO2 T02390221 PWINO
KFFA 240150Z AUTO 22008G15KT 170V250 24/23 A2986 RMK AO2 T02420228 PWINO
KFFA 240130Z AUTO 24010G17KT 190V270 27/24 A2988 RMK AO2 T02660242 PWINO
KFFA 240110Z AUTO 25006G15KT SCT060 28/25 A2986 RMK AO2 T02750248 PWINO
KFFA 240050Z AUTO 21005G15KT 27/25 A2983 RMK AO2 T02740252 PWINO
KFFA 240030Z AUTO 21007G15KT 27/25 A2984 RMK AO2 T02730253 PWINO
KFFA 240010Z AUTO 20008G14KT 160V230 27/25 A2982 RMK AO2 T02720252 PWINO
KFFA 232350Z AUTO 20009G14KT 27/25 A2981 RMK AO2 T02700251 PWINO
KFFA 232330Z AUTO 20006KT 26/24 A2982 RMK AO2 T02550242 PWINO
KFFA 232310Z AUTO 00000KT 25/23 A2981 RMK AO2 T02470234 PWINO
KFFA 232250Z AUTO 14003KT 25/23 A2983 RMK AO2 T02470232 PWINO
KFFA 232230Z AUTO 00000KT 24/23 A2984 RMK AO2 T02440232 PWINO
KFFA 232210Z AUTO 00000KT 23/23 A2983 RMK AO2 T02340229 PWINO
KFFA 232150Z AUTO 00000KT 22/21 A2983 RMK AO2 T02190214 PWINO